Time;durP1;ratioP1;P1;durP2;ratioP2;P2;SDS_P1;SDS_P2;PMS_P1;PMS_P2;Temp;Humidity;BMP_temperature;BMP_pressure;BME280_temperature;BME280_humidity;BME280_pressure;Samples;Min_cycle;Max_cycle;Signal;HPM_P1;HPM_P2
2022/11/11 00:01:25;;;;;;;0.20;0.20;;;11.60;1.00;;;;;;5048572;28;20073;-87
2022/11/11 00:03:54;;;;;;;3.30;0.75;;;11.70;1.00;;;;;;5049029;28;20052;-88
2022/11/11 00:06:20;;;;;;;0.28;0.28;;;11.70;1.00;;;;;;5047369;28;20416;-87
2022/11/11 00:08:47;;;;;;;1.75;1.27;;;12.70;1.00;;;;;;5030833;28;20057;-87
2022/11/11 00:11:14;;;;;;;0.30;0.25;;;12.60;1.00;;;;;;5047225;28;20041;-87
2022/11/11 00:13:41;;;;;;;0.32;0.32;;;12.40;26.00;;;;;;5030590;28;20582;-88
2022/11/11 00:16:10;;;;;;;0.65;0.45;;;12.10;27.00;;;;;;5048401;28;20044;-88
2022/11/11 00:27:13;;;;;;;1.10;0.70;;;11.60;1.00;;;;;;5056748;28;20043;-86
2022/11/11 00:29:39;;;;;;;6.88;0.80;;;12.20;1.00;;;;;;5073962;28;20047;-85
2022/11/11 00:32:22;;;;;;;0.43;0.43;;;12.50;20.50;;;;;;5039873;28;20028;-88
2022/11/11 00:37:34;;;;;;;;;;;12.00;12.60;;;;;;5015827;28;20041;-87
2022/11/11 00:40:04;;;;;;;2.03;1.10;;;11.80;1.00;;;;;;5039676;28;19911;-87
2022/11/11 00:42:37;;;;;;;2.63;1.55;;;11.80;1.00;;;;;;5056418;28;20068;-87
2022/11/11 00:45:03;;;;;;;0.85;0.82;;;11.80;1.00;;;;;;5040012;28;20047;-88
2022/11/11 00:53:18;;;;;;;3.53;1.88;;;12.60;46.00;;;;;;5066264;28;20045;-87
2022/11/11 00:55:44;;;;;;;0.75;0.43;;;12.70;99.90;;;;;;5032524;28;20077;-88
2022/11/11 00:58:10;;;;;;;1.20;0.73;;;12.50;99.90;;;;;;5028890;28;20068;-87
2022/11/11 01:00:37;;;;;;;2.17;1.27;;;12.60;99.90;;;;;;5046643;28;20452;-86
2022/11/11 01:03:07;;;;;;;0.73;0.73;;;12.20;99.90;;;;;;5048294;28;20045;-87
2022/11/11 01:05:33;;;;;;;6.72;1.40;;;11.50;99.90;;;;;;5047849;28;20548;-87
2022/11/11 01:07:59;;;;;;;1.98;0.98;;;11.60;99.90;;;;;;5031347;28;20072;-86
2022/11/11 01:10:37;;;;;;;4.22;1.63;;;11.50;99.90;;;;;;5065659;28;20037;-87
2022/11/11 01:13:11;;;;;;;0.63;0.63;;;11.60;99.90;;;;;;5046561;28;20060;-88
2022/11/11 01:15:39;;;;;;;1.08;0.95;;;11.60;99.90;;;;;;5013089;28;20025;-87
2022/11/11 01:18:05;;;;;;;0.63;0.63;;;12.20;99.90;;;;;;5046226;28;20052;-87
2022/11/11 01:20:31;;;;;;;0.98;0.90;;;12.40;99.90;;;;;;5028744;28;20053;-87
2022/11/11 01:22:57;;;;;;;2.45;1.98;;;11.60;99.90;;;;;;5049380;28;20050;-87
2022/11/11 01:25:23;;;;;;;3.03;1.58;;;11.90;99.90;;;;;;5047051;28;20041;-88
2022/11/11 01:27:49;;;;;;;0.30;0.30;;;11.60;99.90;;;;;;5028133;28;20072;-87
2022/11/11 01:30:15;;;;;;;1.08;0.43;;;11.50;99.90;;;;;;5025499;28;20130;-88
2022/11/11 01:32:41;;;;;;;0.20;0.20;;;11.50;99.90;;;;;;5030395;28;20036;-87
2022/11/11 01:35:07;;;;;;;7.03;3.03;;;11.50;99.90;;;;;;5035770;28;20045;-87
2022/11/11 01:37:34;;;;;;;0.30;0.30;;;11.50;99.90;;;;;;5038159;28;20057;-87
2022/11/11 01:40:00;;;;;;;2.25;2.05;;;11.50;99.90;;;;;;5035193;28;20051;-88
2022/11/11 01:42:26;;;;;;;10.10;1.95;;;11.30;99.90;;;;;;5050777;28;20060;-87
2022/11/11 01:44:51;;;;;;;1.25;1.02;;;11.40;99.90;;;;;;5048499;28;20033;-87
2022/11/11 01:47:18;;;;;;;0.57;0.40;;;12.10;99.90;;;;;;5031724;28;20049;-87
2022/11/11 01:50:00;;;;;;;8.10;1.98;;;10.60;99.90;;;;;;5032550;28;20060;-87
2022/11/11 01:52:33;;;;;;;0.43;0.43;;;11.30;99.90;;;;;;5015467;28;20036;-87
2022/11/11 01:55:06;;;;;;;2.67;1.17;;;11.80;99.90;;;;;;5031402;28;20088;-87
2022/11/11 01:57:37;;;;;;;4.95;1.65;;;12.40;99.90;;;;;;5033629;28;20113;-87
2022/11/11 02:00:10;;;;;;;0.82;0.73;;;11.40;99.90;;;;;;5069377;28;20080;-87
2022/11/11 02:02:47;;;;;;;2.28;1.90;;;11.40;99.90;;;;;;5037500;28;20041;-87
2022/11/11 02:08:07;;;;;;;0.63;0.52;;;12.10;99.90;;;;;;5072998;28;20048;-88
2022/11/11 02:10:33;;;;;;;0.40;0.40;;;11.40;99.90;;;;;;5056234;28;20041;-87
2022/11/11 02:15:44;;;;;;;0.75;0.73;;;12.40;99.90;;;;;;5069370;28;20056;-87
2022/11/11 02:18:10;;;;;;;0.60;0.50;;;11.50;99.90;;;;;;5068955;28;20037;-87
2022/11/11 02:20:43;;;;;;;1.42;1.13;;;11.40;99.90;;;;;;5050142;28;20048;-86
2022/11/11 02:23:12;;;;;;;2.35;1.75;;;11.40;99.90;;;;;;5051962;28;20139;-88
2022/11/11 02:25:41;;;;;;;0.70;0.57;;;11.70;99.90;;;;;;5068619;28;20079;-87
2022/11/11 02:28:07;;;;;;;0.40;0.40;;;11.70;99.90;;;;;;5068334;28;20050;-87
2022/11/11 02:30:34;;;;;;;2.50;1.77;;;11.80;99.90;;;;;;5051317;28;20120;-87
2022/11/11 02:32:59;;;;;;;1.23;1.13;;;12.20;99.90;;;;;;5068532;28;20024;-87
2022/11/11 02:35:37;;;;;;;2.85;1.25;;;11.70;99.90;;;;;;5085180;28;20036;-88
2022/11/11 02:38:08;;;;;;;1.67;1.00;;;12.00;99.90;;;;;;5050129;28;20063;-88
2022/11/11 02:40:36;;;;;;;1.83;1.25;;;11.30;99.90;;;;;;5031717;28;20056;-88
2022/11/11 02:43:02;;;;;;;2.42;1.80;;;10.40;99.90;;;;;;5066511;28;20036;-88
2022/11/11 02:45:27;;;;;;;3.30;2.15;;;11.20;99.90;;;;;;5047489;28;20037;-89
2022/11/11 02:47:53;;;;;;;1.17;0.90;;;11.10;99.90;;;;;;5031298;28;20025;-88
2022/11/11 02:50:20;;;;;;;3.10;1.98;;;11.10;99.90;;;;;;5031212;28;20550;-87
2022/11/11 02:52:46;;;;;;;0.80;0.50;;;11.60;99.90;;;;;;5031296;28;20076;-88
2022/11/11 02:57:38;;;;;;;2.60;1.15;;;11.10;99.90;;;;;;5157716;22;20158;-73
2022/11/11 03:00:05;;;;;;;0.45;0.43;;;11.20;99.90;;;;;;5049372;28;20045;-75
2022/11/11 03:02:31;;;;;;;0.28;0.28;;;11.00;99.90;;;;;;5050449;28;20395;-74
2022/11/11 03:04:57;;;;;;;4.15;1.95;;;11.00;99.90;;;;;;5048296;28;20053;-73
2022/11/11 03:07:24;;;;;;;1.83;1.27;;;11.00;99.90;;;;;;5032734;28;20049;-74
2022/11/11 03:09:50;;;;;;;1.45;1.20;;;11.00;99.90;;;;;;5046610;28;20049;-73
2022/11/11 03:12:16;;;;;;;3.00;1.27;;;11.00;99.90;;;;;;5053735;28;20072;-73
2022/11/11 03:14:42;;;;;;;2.13;1.05;;;11.00;99.90;;;;;;5040494;28;20047;-74
2022/11/11 03:21:03;;;;;;;2.17;1.70;;;11.00;99.90;;;;;;5046740;28;20084;-74
2022/11/11 03:22:38;;;;;;;6.65;2.08;;;11.00;99.90;;;;;;5055391;28;20106;-74
2022/11/11 03:27:48;;;;;;;0.80;0.75;;;11.00;99.90;;;;;;5053147;28;20083;-72
2022/11/11 03:30:13;;;;;;;7.90;1.88;;;11.00;99.90;;;;;;5051607;28;20113;-73
2022/11/11 03:32:39;;;;;;;4.47;1.98;;;11.00;99.90;;;;;;5049104;28;20394;-75
2022/11/11 03:35:05;;;;;;;3.10;1.63;;;11.00;99.90;;;;;;5053591;28;20045;-73
2022/11/11 03:40:14;;;;;;;1.98;1.58;;;11.00;99.90;;;;;;5055882;28;20052;-75
2022/11/11 03:42:42;;;;;;;2.10;1.92;;;11.00;99.90;;;;;;5054454;28;20095;-73
2022/11/11 03:45:08;;;;;;;2.05;1.70;;;11.00;1.00;;;;;;5053821;28;20052;-73
2022/11/11 03:47:33;;;;;;;2.22;1.83;;;11.00;99.90;;;;;;5053223;28;20049;-74
2022/11/11 03:49:59;;;;;;;7.82;2.70;;;11.00;1.00;;;;;;5051777;28;20045;-74
2022/11/11 03:52:24;;;;;;;1.88;1.08;;;11.00;99.90;;;;;;5052006;28;20041;-73
2022/11/11 03:54:50;;;;;;;8.43;2.85;;;11.00;99.90;;;;;;5053465;28;20139;-74
2022/11/11 03:57:31;;;;;;;2.95;1.30;;;11.00;99.90;;;;;;5050781;28;20063;-73
2022/11/11 03:59:57;;;;;;;1.17;1.02;;;11.00;99.90;;;;;;5052555;28;20053;-73
2022/11/11 04:10:36;;;;;;;1.48;1.05;;;10.90;1.00;;;;;;5055108;28;20063;-74
2022/11/11 04:16:06;;;;;;;0.60;0.60;;;10.90;1.00;;;;;;5052260;28;20879;-73
2022/11/11 04:25:47;;;;;;;1.45;1.33;;;10.80;1.00;;;;;;5055194;28;20566;-74
2022/11/11 04:26:49;;;;;;;1.55;1.45;;;10.80;1.00;;;;;;5055990;28;20061;-74
2022/11/11 04:29:27;;;;;;;1.60;1.33;;;10.80;1.00;;;;;;5055555;28;20045;-74
2022/11/11 04:34:38;;;;;;;2.60;2.08;;;10.80;1.00;;;;;;5052964;28;20084;-73
2022/11/11 04:37:04;;;;;;;0.50;0.50;;;10.80;1.00;;;;;;5053029;28;20125;-75
2022/11/11 04:42:13;;;;;;;6.93;2.13;;;10.80;1.00;;;;;;5053039;28;20044;-73
2022/11/11 04:47:23;;;;;;;2.28;2.08;;;10.80;1.00;;;;;;5053481;28;20049;-74
2022/11/11 04:49:49;;;;;;;1.75;0.98;;;10.80;1.00;;;;;;5053046;28;20120;-74
2022/11/11 04:52:27;;;;;;;1.85;1.42;;;10.80;1.00;;;;;;5053025;28;20486;-73
2022/11/11 04:57:45;;;;;;;0.50;0.50;;;10.80;1.00;;;;;;5069925;28;20083;-74
2022/11/11 05:00:16;;;;;;;4.75;2.95;;;10.80;1.00;;;;;;5072945;28;20044;-73
2022/11/11 05:05:27;;;;;;;2.10;1.70;;;10.90;1.00;;;;;;5072644;28;20049;-74
2022/11/11 05:10:37;;;;;;;1.08;0.68;;;10.80;1.00;;;;;;5076837;28;20053;-74
2022/11/11 05:21:28;;;;;;;1.70;1.50;;;10.70;1.00;;;;;;5076111;28;20059;-74
2022/11/11 05:26:38;;;;;;;16.23;1.58;;;10.60;1.00;;;;;;5075123;28;20075;-75
2022/11/11 05:29:03;;;;;;;3.95;1.05;;;10.60;1.00;;;;;;5075948;28;20040;-74
2022/11/11 05:31:29;;;;;;;3.60;2.72;;;10.60;1.00;;;;;;5075868;28;20046;-74
2022/11/11 05:33:55;;;;;;;5.57;2.13;;;10.60;1.00;;;;;;5075398;28;20048;-73
2022/11/11 05:36:21;;;;;;;5.45;1.85;;;10.60;1.00;;;;;;5077206;28;20326;-73
2022/11/11 05:38:47;;;;;;;0.88;0.85;;;10.60;9.20;;;;;;5076313;28;20119;-73
2022/11/11 05:41:12;;;;;;;5.32;2.35;;;10.60;8.40;;;;;;5073730;28;20099;-73
2022/11/11 05:43:38;;;;;;;1.70;1.50;;;10.60;2.50;;;;;;5074737;28;20056;-73
2022/11/11 05:46:04;;;;;;;3.25;1.05;;;10.70;1.00;;;;;;5075785;28;20037;-74
2022/11/11 05:48:31;;;;;;;9.82;2.38;;;10.80;1.00;;;;;;5074691;28;20052;-74
2022/11/11 05:51:00;;;;;;;1.60;0.95;;;10.90;1.00;;;;;;5075660;28;20080;-74
2022/11/11 05:53:27;;;;;;;2.45;1.67;;;11.10;1.00;;;;;;5074506;28;20044;-75
2022/11/11 05:55:52;;;;;;;2.15;1.60;;;11.00;1.00;;;;;;5076142;28;20040;-74
2022/11/11 05:58:19;;;;;;;1.85;1.55;;;11.00;1.00;;;;;;5074258;28;20059;-75
2022/11/11 06:00:45;;;;;;;4.40;1.52;;;11.10;1.00;;;;;;5074311;28;20545;-74
2022/11/11 06:03:10;;;;;;;4.85;1.85;;;11.20;1.00;;;;;;5066598;28;20040;-75
2022/11/11 06:05:36;;;;;;;1.67;1.40;;;11.10;1.00;;;;;;5074345;28;20052;-75
2022/11/11 06:08:03;;;;;;;7.55;1.27;;;11.10;1.00;;;;;;5074773;28;20494;-75
2022/11/11 06:10:31;;;;;;;2.83;1.38;;;11.10;1.00;;;;;;5074052;28;20186;-74
2022/11/11 06:13:01;;;;;;;1.63;1.52;;;11.20;99.90;;;;;;5072930;28;20060;-74
2022/11/11 06:15:34;;;;;;;3.22;2.13;;;11.10;99.90;;;;;;5073186;28;20052;-75
2022/11/11 06:18:01;;;;;;;2.13;1.58;;;12.10;99.90;;;;;;5073451;28;20048;-75
2022/11/11 06:20:27;;;;;;;2.35;2.15;;;11.20;99.90;;;;;;5072090;28;20086;-74
2022/11/11 06:22:56;;;;;;;2.53;2.33;;;11.10;99.90;;;;;;5073447;28;20449;-74
2022/11/11 06:28:15;;;;;;;1.48;1.23;;;11.10;99.90;;;;;;5073701;28;20056;-74
2022/11/11 06:30:41;;;;;;;3.08;2.13;;;11.10;99.90;;;;;;5073644;28;20047;-74
2022/11/11 06:33:08;;;;;;;1.63;1.52;;;11.00;1.00;;;;;;5074078;28;20483;-74
2022/11/11 06:35:34;;;;;;;2.83;1.55;;;11.00;1.00;;;;;;5075106;28;20102;-74
2022/11/11 06:38:01;;;;;;;2.40;1.50;;;11.00;1.00;;;;;;5074207;28;20422;-74
2022/11/11 06:40:27;;;;;;;1.23;1.02;;;11.00;1.00;;;;;;5073630;28;20062;-75
2022/11/11 06:42:53;;;;;;;4.60;2.13;;;11.00;1.00;;;;;;5073751;28;20037;-73
2022/11/11 06:45:18;;;;;;;1.85;1.23;;;11.00;1.00;;;;;;5072449;28;20044;-73
2022/11/11 06:47:44;;;;;;;4.30;1.65;;;11.10;99.90;;;;;;5072178;28;20044;-76
2022/11/11 06:50:10;;;;;;;20.77;1.35;;;11.00;1.00;;;;;;5072536;28;20096;-74
2022/11/11 06:52:35;;;;;;;1.10;0.95;;;11.00;1.00;;;;;;5073348;28;20069;-74
2022/11/11 06:55:01;;;;;;;2.10;1.85;;;11.10;99.90;;;;;;5073852;28;20041;-74
2022/11/11 06:57:26;;;;;;;4.13;2.22;;;11.10;99.90;;;;;;5074243;28;20056;-76
2022/11/11 06:59:52;;;;;;;4.15;2.38;;;11.00;99.90;;;;;;5074743;28;20052;-74
2022/11/11 07:02:17;;;;;;;0.65;0.65;;;11.00;1.00;;;;;;5057739;28;20056;-74
2022/11/11 07:04:43;;;;;;;4.32;2.38;;;11.00;1.00;;;;;;5053542;28;20041;-76
2022/11/11 07:07:09;;;;;;;2.25;2.05;;;11.10;99.90;;;;;;5053637;28;20457;-74
2022/11/11 07:09:34;;;;;;;6.57;2.28;;;11.00;1.00;;;;;;5053078;28;20541;-75
2022/11/11 07:12:00;;;;;;;2.97;1.00;;;11.10;1.00;;;;;;5053984;28;20045;-74
2022/11/11 07:14:26;;;;;;;2.28;1.55;;;11.10;1.00;;;;;;5054637;28;20109;-73
2022/11/11 07:16:52;;;;;;;3.10;1.55;;;11.10;99.90;;;;;;5054372;28;20124;-75
2022/11/11 07:19:17;;;;;;;2.53;2.13;;;11.20;99.90;;;;;;5042379;28;20045;-75
2022/11/11 07:21:43;;;;;;;4.70;3.13;;;11.20;99.90;;;;;;5053902;28;20044;-75
2022/11/11 07:24:08;;;;;;;1.85;1.27;;;11.20;99.90;;;;;;5052640;28;20102;-73
2022/11/11 07:26:34;;;;;;;3.53;1.65;;;11.20;99.90;;;;;;5052316;28;20048;-76
2022/11/11 07:28:59;;;;;;;1.67;1.20;;;11.20;99.90;;;;;;5053550;28;20044;-74
2022/11/11 07:31:25;;;;;;;1.98;1.42;;;11.20;99.90;;;;;;5054399;28;20045;-75
2022/11/11 07:33:54;;;;;;;3.28;1.95;;;11.20;99.90;;;;;;5036472;28;20109;-74
2022/11/11 07:36:19;;;;;;;2.63;1.23;;;11.20;99.90;;;;;;5054444;28;20353;-76
2022/11/11 07:38:45;;;;;;;4.25;3.05;;;11.20;99.90;;;;;;5055353;28;20052;-75
2022/11/11 07:41:10;;;;;;;1.02;0.75;;;11.30;99.90;;;;;;5054189;28;20037;-74
2022/11/11 07:43:36;;;;;;;4.43;2.70;;;11.30;99.90;;;;;;5053615;28;20045;-75
2022/11/11 07:46:02;;;;;;;2.97;1.85;;;11.20;99.90;;;;;;5055210;28;20068;-73
2022/11/11 07:48:27;;;;;;;2.33;1.80;;;11.40;99.90;;;;;;5068870;28;20592;-74
2022/11/11 07:50:53;;;;;;;3.25;2.10;;;11.30;99.90;;;;;;5074324;28;20131;-74
2022/11/11 07:53:19;;;;;;;2.17;1.40;;;11.30;99.90;;;;;;5072521;28;20032;-74
2022/11/11 07:55:45;;;;;;;4.43;0.93;;;11.30;99.90;;;;;;5071879;28;20059;-74
2022/11/11 07:58:11;;;;;;;1.25;1.15;;;11.30;99.90;;;;;;5071244;28;20241;-76
2022/11/11 08:00:37;;;;;;;11.02;3.60;;;11.40;99.90;;;;;;5074027;28;20037;-76
2022/11/11 08:03:03;;;;;;;1.33;0.70;;;11.40;99.90;;;;;;5075224;28;20051;-73
2022/11/11 08:05:29;;;;;;;2.15;1.42;;;11.40;99.90;;;;;;5072670;28;20052;-74
2022/11/11 08:07:55;;;;;;;4.03;2.50;;;11.40;99.90;;;;;;5052648;28;20097;-76
2022/11/11 08:10:20;;;;;;;1.20;0.77;;;11.40;99.90;;;;;;5050956;28;20448;-76
2022/11/11 08:15:36;;;;;;;3.03;1.48;;;11.40;99.90;;;;;;5036169;28;20126;-74
2022/11/11 08:18:02;;;;;;;2.80;1.50;;;11.50;99.90;;;;;;5018452;28;20037;-73
2022/11/11 08:20:27;;;;;;;5.68;3.47;;;11.50;99.90;;;;;;5051535;28;20044;-74
2022/11/11 08:22:55;;;;;;;1.20;0.93;;;11.50;99.90;;;;;;5052534;28;20049;-76
2022/11/11 08:25:22;;;;;;;10.20;1.98;;;11.60;99.90;;;;;;5037040;28;20049;-74
2022/11/11 08:27:47;;;;;;;3.53;1.58;;;11.60;99.90;;;;;;5052463;28;20053;-73
2022/11/11 08:30:13;;;;;;;2.83;1.38;;;11.60;99.90;;;;;;5053345;28;20047;-76
2022/11/11 08:32:39;;;;;;;4.63;2.17;;;11.60;99.90;;;;;;5058277;28;20051;-73
2022/11/11 08:35:05;;;;;;;1.65;0.77;;;11.60;99.90;;;;;;5054547;28;20093;-75
2022/11/11 08:37:31;;;;;;;1.73;0.43;;;11.60;99.90;;;;;;5053044;28;20037;-74
2022/11/11 08:39:56;;;;;;;3.60;0.90;;;11.60;99.90;;;;;;5053977;28;20068;-75
2022/11/11 08:42:22;;;;;;;0.55;0.55;;;11.60;99.90;;;;;;5055980;28;20089;-74
2022/11/11 08:44:48;;;;;;;2.13;0.98;;;11.70;99.90;;;;;;5057530;28;20114;-74
2022/11/11 08:47:14;;;;;;;2.30;1.20;;;11.70;99.90;;;;;;5060153;28;20052;-75
2022/11/11 08:49:39;;;;;;;1.83;1.33;;;11.70;99.90;;;;;;5055906;28;20104;-74
2022/11/11 08:52:05;;;;;;;4.05;0.98;;;11.70;99.90;;;;;;5059322;28;20067;-75
2022/11/11 08:54:32;;;;;;;2.65;1.45;;;11.70;99.90;;;;;;5058359;28;20041;-74
2022/11/11 08:56:58;;;;;;;1.20;1.08;;;11.70;99.90;;;;;;5068151;28;20049;-74
2022/11/11 08:59:23;;;;;;;0.40;0.40;;;11.80;99.90;;;;;;5068306;28;20190;-75
2022/11/11 09:01:49;;;;;;;0.40;0.40;;;11.70;99.90;;;;;;5060186;28;20087;-75
2022/11/11 09:04:16;;;;;;;2.33;1.25;;;11.70;99.90;;;;;;5068818;28;20033;-74
2022/11/11 09:06:44;;;;;;;1.30;0.98;;;11.70;99.90;;;;;;5061256;28;20056;-74
2022/11/11 09:09:10;;;;;;;8.05;2.75;;;11.70;99.90;;;;;;5057247;28;20048;-75
2022/11/11 09:11:35;;;;;;;1.40;1.17;;;11.80;99.90;;;;;;5062185;28;20102;-76
2022/11/11 09:14:01;;;;;;;1.02;0.73;;;11.80;99.90;;;;;;5066721;28;20263;-75
2022/11/11 09:16:27;;;;;;;0.93;0.93;;;11.80;99.90;;;;;;5064727;28;20071;-75
2022/11/11 09:18:52;;;;;;;1.10;0.98;;;11.80;99.90;;;;;;5067858;28;20041;-75
2022/11/11 09:21:18;;;;;;;0.82;0.80;;;11.80;99.90;;;;;;5058303;28;20056;-74
2022/11/11 09:23:44;;;;;;;2.65;0.90;;;11.80;99.90;;;;;;5058451;28;20045;-74
2022/11/11 09:26:09;;;;;;;1.27;1.17;;;11.80;99.90;;;;;;5057001;28;20124;-73
2022/11/11 09:28:35;;;;;;;0.70;0.70;;;11.90;99.90;;;;;;5057464;28;20130;-74
2022/11/11 09:31:01;;;;;;;2.70;1.35;;;11.90;99.90;;;;;;5059330;28;20101;-75
2022/11/11 09:33:27;;;;;;;10.70;1.48;;;11.90;99.90;;;;;;5058391;28;20105;-73
2022/11/11 09:35:53;;;;;;;1.15;1.05;;;11.90;99.90;;;;;;5065861;28;20037;-75
2022/11/11 09:38:18;;;;;;;0.43;0.40;;;11.90;99.90;;;;;;5066841;28;20044;-76
2022/11/11 09:41:07;;;;;;;1.73;1.52;;;11.90;89.30;;;;;;5071545;28;20101;-75
2022/11/11 09:43:45;;;;;;;1.10;0.80;;;11.90;99.90;;;;;;5077715;28;20041;-74
2022/11/11 09:46:23;;;;;;;1.85;1.50;;;11.90;99.90;;;;;;5064908;28;20055;-73
2022/11/11 09:49:13;;;;;;;2.95;0.60;;;11.90;68.60;;;;;;5057569;28;20049;-75
2022/11/11 09:51:46;;;;;;;1.55;0.98;;;12.10;86.70;;;;;;5056660;28;20056;-75
2022/11/11 09:54:25;;;;;;;2.92;1.77;;;12.00;50.20;;;;;;5056249;28;20041;-76
2022/11/11 09:56:51;;;;;;;2.10;1.05;;;12.00;36.40;;;;;;5066948;28;20107;-76
2022/11/11 09:59:24;;;;;;;2.40;1.52;;;12.00;59.10;;;;;;5077049;28;20052;-75
2022/11/11 10:01:56;;;;;;;1.50;1.38;;;12.10;82.20;;;;;;5074290;28;20040;-77
2022/11/11 10:04:35;;;;;;;0.50;0.50;;;12.20;1.00;;;;;;5056111;28;20049;-75
2022/11/11 10:07:11;;;;;;;1.65;1.20;;;12.20;1.00;;;;;;5055166;28;20130;-76
2022/11/11 10:09:49;;;;;;;0.82;0.15;;;12.40;99.90;;;;;;5058616;28;20088;-75
2022/11/11 10:12:16;;;;;;;5.72;0.88;;;12.20;1.00;;;;;;5059322;28;20041;-75
2022/11/11 10:14:49;;;;;;;1.83;1.17;;;12.30;1.00;;;;;;5055324;28;20048;-75
2022/11/11 10:17:17;;;;;;;1.48;1.25;;;12.30;1.00;;;;;;5054866;28;20049;-75
2022/11/11 10:20:32;;;;;;;2.70;1.17;;;12.30;99.90;;;;;;5055327;28;20045;-74
2022/11/11 10:23:19;;;;;;;1.13;0.98;;;12.30;99.90;;;;;;5010436;28;20052;-75
2022/11/11 10:25:56;;;;;;;2.30;2.10;;;12.30;99.90;;;;;;5075366;28;20059;-76
2022/11/11 10:28:27;;;;;;;2.67;1.55;;;12.30;99.90;;;;;;5079563;28;20044;-76
2022/11/11 10:30:54;;;;;;;3.45;1.95;;;12.30;99.90;;;;;;5060358;28;20206;-76
2022/11/11 10:33:56;;;;;;;0.82;0.65;;;12.40;99.90;;;;;;5057343;28;20057;-77
2022/11/11 10:36:23;;;;;;;0.82;0.80;;;12.40;99.90;;;;;;5036652;28;20198;-76
2022/11/11 10:38:57;;;;;;;0.70;0.70;;;12.40;99.90;;;;;;5060929;28;20043;-75
2022/11/11 10:41:48;;;;;;;0.55;0.52;;;12.50;99.90;;;;;;5060296;28;20119;-76
2022/11/11 10:44:20;;;;;;;0.73;0.73;;;12.50;99.90;;;;;;5055424;28;20036;-77
2022/11/11 10:47:06;;;;;;;1.48;1.00;;;12.60;99.90;;;;;;5055661;28;20108;-76
2022/11/11 10:49:37;;;;;;;3.35;2.13;;;12.70;99.90;;;;;;5062185;28;20029;-77
2022/11/11 10:52:26;;;;;;;1.83;1.45;;;12.70;99.90;;;;;;5060683;28;20052;-76
2022/11/11 10:55:02;;;;;;;1.30;0.68;;;12.80;99.90;;;;;;5059976;28;20080;-77
2022/11/11 10:58:00;;;;;;;1.38;1.05;;;12.90;99.90;;;;;;5071912;28;20163;-77
2022/11/11 11:00:26;;;;;;;1.45;1.25;;;12.90;99.90;;;;;;5049029;28;20056;-75
2022/11/11 11:02:58;;;;;;;0.65;0.63;;;12.90;99.90;;;;;;5058161;28;20129;-77
2022/11/11 11:05:42;;;;;;;1.00;0.68;;;12.90;1.00;;;;;;5079914;22;20039;-93
2022/11/11 11:08:43;;;;;;;;;;;;;;;;;;;;;
2022/11/11 11:12:10;;;;;;;2.53;1.55;;;13.10;99.90;;;;;;5096689;28;20055;-93
2022/11/11 11:14:57;;;;;;;2.20;0.95;;;13.20;99.90;;;;;;5041751;28;20108;-93
2022/11/11 11:17:44;;;;;;;2.67;0.82;;;13.30;88.40;;;;;;5079088;28;20028;-93
2022/11/11 11:20:13;;;;;;;2.90;1.75;;;13.30;99.90;;;;;;5079570;28;20063;-92
2022/11/11 11:23:04;;;;;;;0.60;0.40;;;13.30;99.90;;;;;;5095495;28;20055;-94
2022/11/11 11:25:53;;;;;;;;;;;;;;;;;;;;;
2022/11/11 11:28:29;;;;;;;0.73;0.60;;;14.30;1.00;;;;;;5094864;28;20044;-93
2022/11/11 11:31:22;;;;;;;1.42;0.60;;;12.90;1.00;;;;;;5078901;28;20055;-93
2022/11/11 11:34:02;;;;;;;1.30;1.08;;;13.80;1.00;;;;;;5095070;28;20028;-93
2022/11/11 11:36:34;;;;;;;1.17;1.02;;;13.40;1.00;;;;;;5095835;28;20039;-93
2022/11/11 11:39:07;;;;;;;0.75;0.55;;;13.50;1.00;;;;;;5078021;28;20046;-93
2022/11/11 11:42:04;;;;;;;19.00;1.17;;;13.50;1.00;;;;;;5078312;28;20065;-93
2022/11/11 11:45:05;;;;;;;;;;;;;;;;;;;;;
2022/11/11 11:47:53;;;;;;;1.05;0.80;;;14.50;1.00;;;;;;5085301;28;20062;-92
2022/11/11 11:50:40;;;;;;;1.48;0.73;;;13.40;1.00;;;;;;5077679;28;20036;-92
2022/11/11 11:53:25;;;;;;;0.98;0.77;;;13.30;99.90;;;;;;5077206;28;20048;-92
2022/11/11 11:56:20;;;;;;;0.17;0.10;;;13.20;1.00;;;;;;5092292;28;20052;-92
2022/11/11 11:59:19;;;;;;;3.47;2.30;;;13.20;94.10;;;;;;5049708;28;20625;-92
2022/11/11 12:02:17;;;;;;;0.60;0.45;;;13.20;99.90;;;;;;5048745;28;20043;-93
2022/11/11 12:05:07;;;;;;;2.30;1.27;;;13.20;99.90;;;;;;5066634;28;20048;-94
2022/11/11 12:08:19;;;;;;;0.70;0.60;;;13.20;99.90;;;;;;5068262;28;20053;-92
2022/11/11 12:11:15;;;;;;;1.45;1.27;;;13.20;99.90;;;;;;5052946;28;20132;-92
2022/11/11 12:14:22;;;;;;;0.00;0.00;;;13.10;99.90;;;;;;5049696;28;20036;-93
2022/11/11 12:17:02;;;;;;;2.33;0.98;;;13.10;99.90;;;;;;5065981;28;20045;-94
2022/11/11 12:19:31;;;;;;;1.20;1.08;;;13.20;99.90;;;;;;5046404;28;20590;-92
2022/11/11 12:22:15;;;;;;;2.65;1.38;;;13.10;99.90;;;;;;5048031;28;20041;-91
2022/11/11 12:24:56;;;;;;;1.13;0.73;;;13.00;81.50;;;;;;5066526;28;20092;-92
2022/11/11 12:27:27;;;;;;;2.38;1.15;;;13.50;32.80;;;;;;5071044;28;20041;-92
2022/11/11 12:30:20;;;;;;;;;;;;;;;;;;;;;
2022/11/11 12:33:05;;;;;;;1.02;0.75;;;12.90;99.90;;;;;;5068711;28;20041;-93
2022/11/11 12:36:11;;;;;;;0.52;0.45;;;12.90;99.90;;;;;;5065964;28;20088;-93
2022/11/11 12:38:52;;;;;;;5.97;1.88;;;12.80;99.90;;;;;;5069196;28;20072;-92
2022/11/11 12:41:18;;;;;;;1.23;1.00;;;12.80;1.00;;;;;;5056381;28;20220;-93
2022/11/11 12:44:17;;;;;;;;;;;;;;;;;;;;;
2022/11/11 12:46:49;;;;;;;1.00;0.90;;;12.80;1.00;;;;;;5070073;28;20063;-93
2022/11/11 12:49:39;;;;;;;1.00;0.90;;;12.80;99.90;;;;;;5071324;28;20025;-92
2022/11/11 12:52:33;;;;;;;0.30;0.30;;;11.80;1.00;;;;;;5071707;28;20029;-92
2022/11/11 12:55:29;;;;;;;1.15;0.75;;;13.30;1.00;;;;;;5054554;28;20044;-92
2022/11/11 12:58:07;;;;;;;2.15;1.85;;;12.90;1.00;;;;;;5073883;28;20029;-92
2022/11/11 13:00:51;;;;;;;1.92;1.75;;;12.90;1.00;;;;;;5074247;28;20024;-91
2022/11/11 13:03:28;;;;;;;0.20;0.20;;;12.90;23.30;;;;;;5073161;28;20021;-91
2022/11/11 13:06:23;;;;;;;0.85;0.68;;;13.40;1.00;;;;;;5056538;28;20048;-92
2022/11/11 13:09:11;;;;;;;0.10;0.10;;;12.80;99.90;;;;;;5039676;28;20044;-92
2022/11/11 13:12:11;;;;;;;1.15;1.05;;;12.80;1.00;;;;;;5055924;28;20029;-92
2022/11/11 13:14:50;;;;;;;0.65;0.63;;;12.80;1.00;;;;;;5055294;28;20024;-92
2022/11/11 13:17:16;;;;;;;0.60;0.45;;;12.80;1.00;;;;;;5070525;28;20033;-92
2022/11/11 13:19:58;;;;;;;;;;;;;;;;;;;;;
2022/11/11 13:22:33;;;;;;;0.35;0.35;;;13.80;99.90;;;;;;5086696;28;20028;-91
2022/11/11 13:25:12;;;;;;;1.98;1.02;;;13.40;99.90;;;;;;5049243;28;20074;-92
2022/11/11 13:27:48;;;;;;;1.58;1.27;;;12.70;99.90;;;;;;5064672;28;20083;-92
2022/11/11 13:30:52;;;;;;;1.73;0.88;;;12.70;99.90;;;;;;5064180;28;20078;-92
2022/11/11 13:33:27;;;;;;;5.28;1.25;;;12.50;99.90;;;;;;5064902;28;20036;-92
2022/11/11 13:36:00;;;;;;;1.83;0.82;;;13.40;1.00;;;;;;5046691;28;20391;-91
2022/11/11 13:38:32;;;;;;;4.43;1.83;;;12.40;1.00;;;;;;5047208;28;20108;-92
2022/11/11 13:41:04;;;;;;;2.45;1.85;;;12.80;99.90;;;;;;5050169;28;20063;-92
2022/11/11 13:44:04;;;;;;;0.90;0.85;;;12.30;99.90;;;;;;5067261;28;20049;-93
2022/11/11 13:46:43;;;;;;;3.03;1.33;;;12.40;99.90;;;;;;5056384;28;20112;-92
2022/11/11 13:49:20;;;;;;;1.20;1.10;;;12.40;99.90;;;;;;5051608;28;20491;-92
2022/11/11 13:51:55;;;;;;;0.25;0.25;;;12.40;99.90;;;;;;5066448;28;20055;-93
2022/11/11 13:54:47;;;;;;;0.82;0.82;;;12.00;99.90;;;;;;5069968;28;20112;-92
2022/11/11 13:57:12;;;;;;;0.85;0.68;;;12.40;99.90;;;;;;5057295;28;20052;-92
2022/11/11 13:59:41;;;;;;;1.75;0.90;;;12.40;99.90;;;;;;5073037;28;20040;-93
2022/11/11 14:02:44;;;;;;;2.70;2.05;;;12.40;99.90;;;;;;5074664;28;20063;-93
2022/11/11 14:05:10;;;;;;;1.92;1.00;;;12.40;99.90;;;;;;5059779;28;20029;-92
2022/11/11 14:07:47;;;;;;;1.95;1.42;;;12.40;99.90;;;;;;5075167;28;20070;-91
2022/11/11 14:10:16;;;;;;;3.35;2.35;;;12.30;1.00;;;;;;5074102;28;20024;-92
2022/11/11 14:12:53;;;;;;;1.65;1.38;;;12.30;99.90;;;;;;5057868;28;20051;-92
2022/11/11 14:15:36;;;;;;;1.13;1.05;;;12.40;99.90;;;;;;5074207;28;20127;-91
2022/11/11 14:18:06;;;;;;;0.93;0.93;;;12.40;99.90;;;;;;5073922;28;20096;-92
2022/11/11 14:20:33;;;;;;;1.65;1.13;;;12.40;99.90;;;;;;5074081;28;20021;-92
2022/11/11 14:23:19;;;;;;;1.45;1.20;;;12.40;99.90;;;;;;5057682;28;20025;-91
2022/11/11 14:26:08;;;;;;;1.63;0.98;;;12.30;99.90;;;;;;5076376;28;20033;-92
2022/11/11 14:28:50;;;;;;;0.30;0.30;;;12.30;1.00;;;;;;5062711;28;20171;-92
2022/11/11 14:31:16;;;;;;;1.67;1.17;;;12.40;1.00;;;;;;5057495;28;20092;-93
2022/11/11 14:33:54;;;;;;;2.83;0.98;;;12.70;99.90;;;;;;5074798;28;20370;-91
2022/11/11 14:37:05;;;;;;;2.08;1.38;;;12.30;1.00;;;;;;5073718;28;20054;-92
2022/11/11 14:39:49;;;;;;;0.17;0.17;;;12.30;1.00;;;;;;5001195;28;20058;-92
2022/11/11 14:42:36;;;;;;;1.55;1.38;;;12.20;1.00;;;;;;5072809;28;20074;-92
2022/11/11 14:45:04;;;;;;;3.60;2.05;;;12.20;27.60;;;;;;5075598;28;20044;-93
2022/11/11 14:47:29;;;;;;;2.30;1.83;;;12.20;99.90;;;;;;5075041;28;20085;-93
2022/11/11 14:49:57;;;;;;;1.40;0.75;;;12.10;96.40;;;;;;5072695;28;20028;-92